createdAt,value
2022-10-05T00:03:42.610Z,98241.22
2022-10-05T00:08:44.428Z,98239.38
2022-10-05T00:13:47.206Z,98242.59
2022-10-05T00:18:51.517Z,98234.19
2022-10-05T00:23:56.741Z,98228.53
2022-10-05T00:28:58.766Z,98215.09
2022-10-05T00:34:00.556Z,98227.66
2022-10-05T00:39:02.316Z,98224.81
2022-10-05T00:44:22.830Z,98222.78
2022-10-05T00:49:57.483Z,98225.78
2022-10-05T00:55:10.770Z,98221.03
2022-10-05T01:00:17.599Z,98215.59
2022-10-05T01:05:39.948Z,98214.66
2022-10-05T01:10:56.346Z,98210.69
2022-10-05T01:16:17.111Z,98218.31
2022-10-05T01:21:24.728Z,98211.09
2022-10-05T01:26:44.158Z,98199.28
2022-10-05T01:32:10.111Z,98185.97
2022-10-05T01:37:38.389Z,98194.13
2022-10-05T01:43:11.683Z,98194.50
2022-10-05T01:48:27.383Z,98187.31
2022-10-05T01:53:49.661Z,98186.75
2022-10-05T01:59:16.207Z,98189.03
2022-10-05T02:04:59.680Z,98192.72
2022-10-05T02:10:04.750Z,98166.34
2022-10-05T02:15:19.728Z,98183.19
2022-10-05T02:20:26.056Z,98183.75
2022-10-05T02:25:42.864Z,98186.47
2022-10-05T02:30:54.317Z,98189.91
2022-10-05T02:36:02.787Z,98185.44
2022-10-05T02:41:28.567Z,98170.91
2022-10-05T02:46:51.995Z,98161.34
2022-10-05T02:52:13.593Z,98165.47
2022-10-05T02:57:38.702Z,98156.91
2022-10-05T03:02:44.209Z,98152.34
2022-10-05T03:07:53.728Z,98148.38
2022-10-05T03:13:17.521Z,98150.78
2022-10-05T03:18:39.187Z,98153.81
2022-10-05T03:23:46.944Z,98155.88
2022-10-05T03:29:23.930Z,98149.84
2022-10-05T03:34:27.659Z,98146.75
2022-10-05T03:39:51.498Z,98141.47
2022-10-05T03:45:18.459Z,98142.28
2022-10-05T03:50:37.628Z,98141.09
2022-10-05T03:56:05.695Z,98147.78
2022-10-05T04:01:17.425Z,98150.41
2022-10-05T04:06:27.215Z,98150.91
2022-10-05T04:11:35.787Z,98149.69
2022-10-05T04:16:43.066Z,98157.28
2022-10-05T04:21:53.723Z,98152.25
2022-10-05T04:27:00.399Z,98158.91
2022-10-05T04:32:19.263Z,98160.78
2022-10-05T04:37:42.155Z,98163.50
2022-10-05T04:43:23.039Z,98165.34
2022-10-05T04:48:39.257Z,98165.34
2022-10-05T04:53:54.236Z,98160.19
2022-10-05T04:59:18.232Z,98164.94
2022-10-05T05:05:05.979Z,98162.91
2022-10-05T05:10:38.972Z,98159.66
2022-10-05T05:16:11.871Z,98160.56
2022-10-05T05:21:46.347Z,98174.56
2022-10-05T05:27:21.024Z,98182.28
2022-10-05T05:32:52.639Z,98176.03
2022-10-05T05:38:36.337Z,98170.88
2022-10-05T05:44:00.594Z,98170.88
2022-10-05T05:49:18.383Z,98167.91
2022-10-05T05:54:29.553Z,98177.03
2022-10-05T05:59:37.949Z,98173.44
2022-10-05T06:04:47.049Z,98182.25
2022-10-05T06:10:01.496Z,98184.59
2022-10-05T06:15:17.781Z,98185.16
2022-10-05T06:20:38.374Z,98186.66
2022-10-05T06:25:43.589Z,98179.31
2022-10-05T06:30:45.971Z,98175.72
2022-10-05T06:36:15.347Z,98172.72
2022-10-05T06:41:25.883Z,98165.81
2022-10-05T06:46:52.416Z,98171.34
2022-10-05T06:52:39.011Z,98155.59
2022-10-05T06:57:55.268Z,98153.81
2022-10-05T07:03:00.079Z,98149.66
2022-10-05T07:08:08.461Z,98151.31
2022-10-05T07:13:35.474Z,98149.06
2022-10-05T07:18:57.241Z,98151.63
2022-10-05T07:24:29.671Z,98149.88
2022-10-05T07:29:50.785Z,98136.03
2022-10-05T07:35:33.436Z,98140.03
2022-10-05T07:40:39.403Z,98135.38
2022-10-05T07:46:03.103Z,98131.28
2022-10-05T07:51:29.487Z,98139.47
2022-10-05T07:56:41.185Z,98135.03
2022-10-05T08:01:48.731Z,98141.28
2022-10-05T08:06:56.452Z,98138.34
2022-10-05T08:12:04.708Z,98142.66
2022-10-05T08:17:16.476Z,98138.63
2022-10-05T08:22:26.277Z,98136.22
2022-10-05T08:27:36.684Z,98134.63
2022-10-05T08:32:42.136Z,98131.94
2022-10-05T08:37:45.354Z,98132.66
2022-10-05T08:43:07.298Z,98128.44
2022-10-05T08:48:49.902Z,98129.03
2022-10-05T08:54:10.033Z,98115.59
2022-10-05T08:59:26.989Z,98102.63
2022-10-05T09:05:19.310Z,98103.75
2022-10-05T09:10:42.967Z,98101.63
2022-10-05T09:16:09.522Z,98085.34
2022-10-05T09:21:31.819Z,98078.88
2022-10-05T09:26:58.960Z,98078.53
2022-10-05T09:32:36.056Z,98079.97
2022-10-05T09:38:11.674Z,98078.81
2022-10-05T09:43:27.919Z,98082.69
2022-10-05T09:48:48.579Z,98077.50
2022-10-05T09:54:05.490Z,98074.72
2022-10-05T09:59:13.361Z,98074.00
2022-10-05T10:04:34.910Z,98074.13
2022-10-05T10:10:02.644Z,98069.06
2022-10-05T10:15:16.722Z,98066.06
2022-10-05T10:20:31.020Z,98069.44
2022-10-05T10:25:41.776Z,98071.38
2022-10-05T10:30:46.497Z,98076.78
2022-10-05T10:36:09.581Z,98080.16
2022-10-05T10:41:31.088Z,98079.09
2022-10-05T10:46:45.458Z,98080.91
2022-10-05T10:52:09.961Z,98080.28
2022-10-05T10:57:58.022Z,98081.28
2022-10-05T11:03:13.355Z,98078.31
2022-10-05T11:08:36.327Z,98081.00
2022-10-05T11:14:06.210Z,98084.03
2022-10-05T11:20:03.127Z,98082.00
2022-10-05T11:25:31.235Z,98092.13
2022-10-05T11:30:46.221Z,98096.97
2022-10-05T11:36:08.961Z,98096.13
2022-10-05T11:41:19.888Z,98098.38
2022-10-05T11:46:49.403Z,98090.91
2022-10-05T11:51:54.843Z,98081.47
2022-10-05T11:57:24.113Z,98083.84
2022-10-05T12:02:47.804Z,98061.97
2022-10-05T12:08:04.826Z,98078.09
2022-10-05T12:13:33.421Z,98079.31
2022-10-05T12:18:39.281Z,98076.22
2022-10-05T12:24:26.882Z,98069.25
2022-10-05T12:29:32.314Z,98066.38
2022-10-05T12:35:03.341Z,98056.88
2022-10-05T12:40:39.157Z,98063.97
2022-10-05T12:46:17.777Z,98065.84
2022-10-05T12:51:51.499Z,98064.63
2022-10-05T12:57:21.419Z,98060.28
2022-10-05T13:02:44.386Z,98046.00
2022-10-05T13:08:01.577Z,98059.84
2022-10-05T13:13:26.231Z,98050.06
2022-10-05T13:18:59.836Z,98042.63
2022-10-05T13:24:07.805Z,98036.16
2022-10-05T13:29:30.714Z,98041.13
2022-10-05T13:34:57.576Z,98014.97
2022-10-05T13:40:14.797Z,98024.28
2022-10-05T13:45:32.302Z,98024.75
2022-10-05T13:50:44.252Z,98017.00
2022-10-05T13:55:53.720Z,98018.69
2022-10-05T14:01:00.259Z,98024.53
2022-10-05T14:06:30.733Z,98026.81
2022-10-05T14:11:37.639Z,98030.13
2022-10-05T14:16:52.677Z,98025.84
2022-10-05T14:22:22.246Z,98025.66
2022-10-05T14:27:26.054Z,98023.81
2022-10-05T14:32:33.549Z,98021.88
2022-10-05T14:37:50.508Z,98011.66
2022-10-05T14:42:53.420Z,98012.47
2022-10-05T14:48:11.559Z,98021.63
2022-10-05T14:53:16.796Z,98005.56
2022-10-05T14:58:18.548Z,98014.34
2022-10-05T15:03:27.384Z,98006.50
2022-10-05T15:08:49.245Z,98008.47
2022-10-05T15:13:52.731Z,98019.19
2022-10-05T15:19:02.907Z,98012.03
2022-10-05T15:24:26.498Z,98010.66
2022-10-05T15:29:51.916Z,98006.25
2022-10-05T15:35:16.796Z,98005.47
2022-10-05T15:40:34.728Z,98005.41
2022-10-05T15:45:42.891Z,98011.19
2022-10-05T15:50:59.838Z,98013.31
2022-10-05T15:56:10.257Z,97993.09
2022-10-05T16:01:40.436Z,98001.16
2022-10-05T16:07:43.864Z,98001.38
2022-10-05T16:13:19.351Z,98010.56
2022-10-05T16:18:32.342Z,98008.50
2022-10-05T16:24:00.529Z,98011.19
2022-10-05T16:29:05.076Z,97997.41
2022-10-05T16:34:17.315Z,98002.13
2022-10-05T16:39:25.412Z,98011.66
2022-10-05T16:44:44.489Z,98007.84
2022-10-05T16:49:57.644Z,98010.69
2022-10-05T16:55:20.202Z,98005.25
2022-10-05T17:00:54.541Z,98003.63
2022-10-05T17:06:08.408Z,98012.31
2022-10-05T17:11:55.269Z,98011.72
2022-10-05T17:17:17.187Z,98009.28
2022-10-05T17:22:41.021Z,98009.06
2022-10-05T17:28:09.955Z,98009.91
2022-10-05T17:33:20.530Z,98016.75
2022-10-05T17:38:23.452Z,98016.72
2022-10-05T17:43:30.836Z,98013.69
2022-10-05T17:48:42.713Z,98021.78
2022-10-05T17:54:03.033Z,98024.03
2022-10-05T17:59:06.730Z,98017.75
2022-10-05T18:04:10.986Z,98028.66
2022-10-05T18:09:22.924Z,98020.00
2022-10-05T18:14:24.943Z,98032.50
2022-10-05T18:19:31.359Z,98035.09
2022-10-05T18:24:53.093Z,98040.75
2022-10-05T18:30:06.013Z,98042.97
2022-10-05T18:35:38.057Z,98033.88
2022-10-05T18:40:50.577Z,98049.84
2022-10-05T18:46:11.848Z,98048.00
2022-10-05T18:51:40.247Z,98056.47
2022-10-05T18:56:48.805Z,98047.00
2022-10-05T19:01:53.525Z,98057.13
2022-10-05T19:07:27.714Z,98059.28
2022-10-05T19:12:50.065Z,98060.31
2022-10-05T19:18:29.054Z,98056.50
2022-10-05T19:23:42.595Z,98060.72
2022-10-05T19:29:07.200Z,98061.94
2022-10-05T19:34:42.838Z,98063.16
2022-10-05T19:39:54.134Z,98070.22
2022-10-05T19:45:14.174Z,98068.53
2022-10-05T19:50:29.250Z,98079.47
2022-10-05T19:55:41.629Z,98088.56
2022-10-05T20:00:45.812Z,98082.72
2022-10-05T20:05:48.298Z,98094.41
2022-10-05T20:11:12.176Z,98097.25
2022-10-05T20:16:37.066Z,98115.22
2022-10-05T20:21:47.881Z,98104.13
2022-10-05T20:27:07.079Z,98110.78
2022-10-05T20:32:13.783Z,98129.59
2022-10-05T20:37:18.650Z,98131.59
2022-10-05T20:42:21.220Z,98135.22
2022-10-05T20:47:23.113Z,98144.91
2022-10-05T20:52:26.132Z,98149.38
2022-10-05T20:57:27.714Z,98152.78
2022-10-05T21:02:32.154Z,98168.75
2022-10-05T21:07:36.631Z,98164.47
2022-10-05T21:12:38.209Z,98165.06
2022-10-05T21:17:39.981Z,98164.25
2022-10-05T21:22:41.914Z,98166.91
2022-10-05T21:27:44.343Z,98156.22
2022-10-05T21:32:45.999Z,98157.22
2022-10-05T21:37:47.595Z,98163.69
2022-10-05T21:42:49.167Z,98165.28
2022-10-05T21:47:50.819Z,98171.16
2022-10-05T21:52:53.541Z,98177.41
2022-10-05T21:57:57.069Z,98188.94
2022-10-05T22:02:58.609Z,98190.34
2022-10-05T22:08:00.637Z,98190.97
2022-10-05T22:13:04.127Z,98197.63
2022-10-05T22:18:05.878Z,98205.09
2022-10-05T22:23:07.480Z,98208.56
2022-10-05T22:28:13.598Z,98217.63
2022-10-05T22:33:15.274Z,98227.50
2022-10-05T22:38:16.870Z,98233.78
2022-10-05T22:43:18.415Z,98240.88
2022-10-05T22:48:20.184Z,98247.50
2022-10-05T22:53:21.720Z,98257.22
2022-10-05T22:58:23.415Z,98260.63
2022-10-05T23:03:25.065Z,98268.28
2022-10-05T23:08:27.124Z,98271.06
2022-10-05T23:13:29.650Z,98271.25
2022-10-05T23:18:31.908Z,98277.31
2022-10-05T23:23:37.030Z,98270.66
2022-10-05T23:28:46.530Z,98280.16
2022-10-05T23:33:48.582Z,98286.59
2022-10-05T23:38:50.648Z,98291.25
2022-10-05T23:43:54.748Z,98295.66
2022-10-05T23:48:56.294Z,98292.97
2022-10-05T23:53:57.921Z,98291.50
2022-10-05T23:58:59.523Z,98289.69
